createdAt,value
2023-02-06T00:01:49.162Z,9.23
2023-02-06T00:04:16.599Z,10.40
2023-02-06T00:06:44.017Z,9.37
2023-02-06T00:09:11.746Z,9.83
2023-02-06T00:11:38.801Z,8.97
2023-02-06T00:14:07.271Z,8.57
2023-02-06T00:16:36.785Z,9.37
2023-02-06T00:19:04.339Z,7.50
2023-02-06T00:21:31.955Z,7.57
2023-02-06T00:24:00.867Z,8.33
2023-02-06T00:26:28.401Z,7.83
2023-02-06T00:28:55.447Z,8.03
2023-02-06T00:31:22.456Z,7.37
2023-02-06T00:33:52.762Z,7.10
2023-02-06T00:36:19.723Z,7.57
2023-02-06T00:38:51.023Z,6.37
2023-02-06T00:41:17.985Z,6.30
2023-02-06T00:43:44.921Z,6.23
2023-02-06T00:46:12.374Z,6.13
2023-02-06T00:48:39.497Z,6.07
2023-02-06T00:51:06.904Z,5.80
2023-02-06T00:53:34.039Z,6.20
2023-02-06T00:56:00.943Z,6.13
2023-02-06T00:58:27.886Z,5.43
2023-02-06T01:00:55.074Z,5.23
2023-02-06T01:03:22.403Z,5.77
2023-02-06T01:05:49.580Z,4.93
2023-02-06T01:08:16.508Z,5.03
2023-02-06T01:10:44.956Z,4.83
2023-02-06T01:13:12.537Z,5.43
2023-02-06T01:15:39.630Z,5.83
2023-02-06T01:18:06.567Z,5.63
2023-02-06T01:20:33.640Z,5.17
2023-02-06T01:23:00.655Z,5.77
2023-02-06T01:25:27.908Z,5.80
2023-02-06T01:27:54.760Z,6.60
2023-02-06T01:30:21.681Z,5.80
2023-02-06T01:32:48.487Z,6.13
2023-02-06T01:35:15.358Z,5.43
2023-02-06T01:37:42.587Z,5.57
2023-02-06T01:40:14.123Z,6.10
2023-02-06T01:42:41.250Z,5.70
2023-02-06T01:45:37.563Z,5.40
2023-02-06T01:48:10.420Z,5.60
2023-02-06T01:50:40.154Z,4.90
2023-02-06T01:53:07.969Z,4.80
2023-02-06T01:55:41.763Z,4.70
2023-02-06T01:58:11.469Z,4.93
2023-02-06T02:00:38.783Z,4.60
2023-02-06T02:03:05.909Z,4.77
2023-02-06T02:05:34.296Z,4.47
2023-02-06T02:08:08.621Z,4.70
2023-02-06T02:10:35.593Z,4.10
2023-02-06T02:13:02.521Z,4.97
2023-02-06T02:15:43.087Z,4.00
2023-02-06T02:18:45.011Z,4.07
2023-02-06T02:21:14.765Z,4.63
2023-02-06T02:24:10.628Z,3.63
2023-02-06T02:26:51.313Z,4.40
2023-02-06T02:29:54.969Z,4.40
2023-02-06T02:32:36.656Z,3.90
2023-02-06T02:35:06.448Z,4.63
2023-02-06T02:37:36.010Z,4.20
2023-02-06T02:40:27.542Z,3.50
2023-02-06T02:43:13.560Z,4.03
2023-02-06T02:45:54.995Z,4.80
2023-02-06T02:48:32.820Z,4.57
2023-02-06T02:51:01.173Z,4.37
2023-02-06T02:53:28.252Z,4.70
2023-02-06T02:55:55.817Z,3.67
2023-02-06T02:58:28.845Z,3.77
2023-02-06T03:01:02.352Z,4.57
2023-02-06T03:03:32.839Z,4.10
2023-02-06T03:06:27.202Z,4.20
2023-02-06T03:09:06.332Z,4.37
2023-02-06T03:11:34.206Z,4.20
2023-02-06T03:14:20.955Z,4.53
2023-02-06T03:16:52.655Z,3.90
2023-02-06T03:19:25.264Z,3.90
2023-02-06T03:21:52.152Z,3.97
2023-02-06T03:24:26.640Z,3.63
2023-02-06T03:26:59.362Z,3.83
2023-02-06T03:29:28.608Z,4.10
2023-02-06T03:32:06.121Z,3.87
2023-02-06T03:34:44.787Z,3.80
2023-02-06T03:37:12.764Z,4.70
2023-02-06T03:39:40.858Z,3.33
2023-02-06T03:42:11.558Z,3.80
2023-02-06T03:44:43.377Z,3.83
2023-02-06T03:47:12.223Z,4.23
2023-02-06T03:49:41.778Z,4.10
2023-02-06T03:52:12.973Z,4.60
2023-02-06T03:54:45.570Z,4.87
2023-02-06T03:57:19.551Z,6.00
2023-02-06T03:59:47.565Z,5.33
2023-02-06T04:02:17.107Z,5.40
2023-02-06T04:04:45.399Z,5.03
2023-02-06T04:07:23.040Z,5.70
2023-02-06T04:09:50.309Z,5.67
2023-02-06T04:12:17.454Z,5.70
2023-02-06T04:14:44.472Z,5.60
2023-02-06T04:17:12.074Z,6.13
2023-02-06T04:19:39.561Z,5.90
2023-02-06T04:22:07.352Z,6.43
2023-02-06T04:24:34.545Z,5.77
2023-02-06T04:27:01.551Z,6.27
2023-02-06T04:29:28.540Z,6.50
2023-02-06T04:32:02.112Z,7.13
2023-02-06T04:34:30.339Z,7.17
2023-02-06T04:36:57.740Z,6.27
2023-02-06T04:39:25.421Z,6.67
2023-02-06T04:41:52.390Z,6.40
2023-02-06T04:44:19.270Z,6.20
2023-02-06T04:46:46.346Z,6.07
2023-02-06T04:49:14.371Z,6.90
2023-02-06T04:51:42.088Z,6.10
2023-02-06T04:54:13.096Z,6.40
2023-02-06T04:56:40.062Z,6.57
2023-02-06T04:59:07.095Z,5.90
2023-02-06T05:01:34.092Z,6.40
2023-02-06T05:04:01.136Z,6.40
2023-02-06T05:06:30.031Z,5.80
2023-02-06T05:08:59.504Z,6.30
2023-02-06T05:11:27.085Z,6.40
2023-02-06T05:13:53.940Z,6.27
2023-02-06T05:16:20.603Z,6.93
2023-02-06T05:18:47.650Z,6.57
2023-02-06T05:21:15.500Z,6.40
2023-02-06T05:23:42.417Z,6.47
2023-02-06T05:26:09.249Z,6.77
2023-02-06T05:28:36.119Z,5.87
2023-02-06T05:31:03.824Z,7.23
2023-02-06T05:33:31.276Z,6.07
2023-02-06T05:36:07.925Z,6.20
2023-02-06T05:38:35.092Z,6.20
2023-02-06T05:41:02.315Z,6.50
2023-02-06T05:43:31.311Z,6.80
2023-02-06T05:45:58.263Z,7.33
2023-02-06T05:48:25.280Z,11.10
2023-02-06T05:50:52.240Z,7.73
2023-02-06T05:53:23.303Z,9.47
2023-02-06T05:55:50.912Z,8.37
2023-02-06T05:58:18.003Z,9.33
2023-02-06T06:00:45.260Z,9.10
2023-02-06T06:03:12.279Z,8.60
2023-02-06T06:05:39.437Z,7.40
2023-02-06T06:08:06.423Z,7.33
2023-02-06T06:10:33.375Z,7.50
2023-02-06T06:13:00.535Z,6.73
2023-02-06T06:15:27.486Z,6.67
2023-02-06T06:17:54.485Z,7.00
2023-02-06T06:20:21.475Z,6.57
2023-02-06T06:22:48.317Z,8.17
2023-02-06T06:25:15.362Z,7.20
2023-02-06T06:27:42.320Z,7.57
2023-02-06T06:30:10.290Z,7.57
2023-02-06T06:32:37.215Z,8.10
2023-02-06T06:35:04.466Z,8.17
2023-02-06T06:37:31.526Z,8.97
2023-02-06T06:39:59.665Z,8.67
2023-02-06T06:42:26.666Z,7.60
2023-02-06T06:44:53.668Z,7.63
2023-02-06T06:47:20.653Z,6.73
2023-02-06T06:49:47.695Z,7.33
2023-02-06T06:52:25.040Z,6.63
2023-02-06T06:54:55.803Z,6.73
2023-02-06T06:57:22.976Z,6.97
2023-02-06T06:59:50.146Z,7.93
2023-02-06T07:02:17.218Z,7.83
2023-02-06T07:04:44.264Z,7.90
2023-02-06T07:07:11.508Z,8.33
2023-02-06T07:09:38.407Z,8.27
2023-02-06T07:12:05.757Z,8.67
2023-02-06T07:14:32.612Z,9.43
2023-02-06T07:17:01.888Z,9.70
2023-02-06T07:19:28.790Z,9.27
2023-02-06T07:21:55.626Z,8.80
2023-02-06T07:24:27.784Z,11.37
2023-02-06T07:26:57.962Z,12.07
2023-02-06T07:29:26.494Z,13.27
2023-02-06T07:31:53.566Z,11.60
2023-02-06T07:34:20.420Z,10.77
2023-02-06T07:36:47.798Z,11.40
2023-02-06T07:39:14.694Z,11.27
2023-02-06T07:41:41.920Z,11.03
2023-02-06T07:44:11.284Z,11.60
2023-02-06T07:46:38.366Z,11.90
2023-02-06T07:49:06.510Z,12.33
2023-02-06T07:51:33.583Z,11.30
2023-02-06T07:54:02.333Z,11.87
2023-02-06T07:56:29.157Z,11.47
2023-02-06T07:58:56.139Z,11.47
2023-02-06T08:01:23.899Z,9.90
2023-02-06T08:03:52.263Z,11.87
2023-02-06T08:06:21.486Z,12.90
2023-02-06T08:08:50.267Z,12.20
2023-02-06T08:11:19.662Z,12.63
2023-02-06T08:13:48.312Z,13.47
2023-02-06T08:16:21.941Z,13.00
2023-02-06T08:18:49.233Z,13.90
2023-02-06T08:21:24.132Z,13.87
2023-02-06T08:23:59.135Z,14.83
2023-02-06T08:26:28.516Z,14.17
2023-02-06T08:28:57.235Z,13.60
2023-02-06T08:31:26.137Z,14.17
2023-02-06T08:33:53.431Z,13.10
2023-02-06T08:36:21.311Z,12.93
2023-02-06T08:38:48.964Z,14.07
2023-02-06T08:41:30.864Z,12.60
2023-02-06T08:44:02.420Z,13.03
2023-02-06T08:46:30.984Z,14.47
2023-02-06T08:49:18.021Z,13.53
2023-02-06T08:51:45.856Z,14.13
2023-02-06T08:54:16.172Z,16.23
2023-02-06T08:56:43.590Z,17.20
2023-02-06T08:59:13.342Z,19.43
2023-02-06T09:01:41.052Z,18.20
2023-02-06T09:04:14.149Z,19.43
2023-02-06T09:06:44.263Z,17.33
2023-02-06T09:09:12.740Z,15.40
2023-02-06T09:11:40.259Z,16.43
2023-02-06T09:14:08.820Z,15.87
2023-02-06T09:16:37.849Z,15.57
2023-02-06T09:19:05.259Z,14.73
2023-02-06T09:21:34.814Z,16.17
2023-02-06T09:24:05.315Z,15.30
2023-02-06T09:26:44.789Z,14.27
2023-02-06T09:29:17.140Z,13.53
2023-02-06T09:31:44.258Z,14.27
2023-02-06T09:34:12.834Z,16.57
2023-02-06T09:36:40.160Z,17.07
2023-02-06T09:39:09.065Z,16.17
2023-02-06T09:41:42.508Z,12.63
2023-02-06T09:44:24.291Z,15.17
2023-02-06T09:46:58.307Z,13.17
2023-02-06T09:49:43.548Z,12.97
2023-02-06T09:52:23.437Z,12.27
2023-02-06T09:55:18.621Z,14.00
2023-02-06T09:57:57.282Z,11.93
2023-02-06T10:00:33.202Z,12.00
2023-02-06T10:03:12.846Z,11.27
2023-02-06T10:06:23.280Z,12.63
2023-02-06T10:09:05.079Z,10.47
2023-02-06T10:12:01.228Z,10.67
2023-02-06T10:14:45.498Z,12.50
2023-02-06T10:17:21.851Z,15.80
2023-02-06T10:19:51.527Z,20.83
2023-02-06T10:22:28.300Z,18.67
2023-02-06T10:25:30.369Z,14.80
2023-02-06T10:28:01.448Z,14.37
2023-02-06T10:31:09.958Z,16.77
2023-02-06T10:33:50.997Z,14.73
2023-02-06T10:36:32.354Z,15.77
2023-02-06T10:39:36.178Z,15.23
2023-02-06T10:42:38.460Z,14.70
2023-02-06T10:45:26.929Z,15.47
2023-02-06T10:48:39.307Z,15.63
2023-02-06T10:51:27.559Z,16.23
2023-02-06T10:53:59.905Z,16.07
2023-02-06T10:56:30.684Z,15.70
2023-02-06T10:59:17.396Z,14.07
2023-02-06T11:01:47.550Z,12.77
2023-02-06T11:04:33.989Z,13.30
2023-02-06T11:07:04.545Z,13.30
2023-02-06T11:09:32.355Z,12.93
2023-02-06T11:12:01.068Z,10.37
2023-02-06T11:14:33.287Z,9.27
2023-02-06T11:17:00.805Z,9.30
2023-02-06T11:19:31.156Z,11.17
2023-02-06T11:22:15.476Z,9.27
2023-02-06T11:25:32.127Z,8.97
2023-02-06T11:28:00.903Z,8.77
2023-02-06T11:30:36.863Z,8.57
2023-02-06T11:33:20.277Z,8.17
2023-02-06T11:36:04.493Z,9.10
2023-02-06T11:38:32.617Z,8.47
2023-02-06T11:41:02.410Z,9.00
2023-02-06T11:43:48.967Z,7.77
2023-02-06T11:46:19.771Z,7.27
2023-02-06T11:49:20.871Z,7.70
2023-02-06T11:51:53.004Z,7.17
2023-02-06T11:54:28.448Z,7.83
2023-02-06T11:57:20.269Z,7.40
2023-02-06T11:59:59.587Z,7.17
2023-02-06T12:02:33.360Z,6.50
2023-02-06T12:05:21.948Z,6.67
2023-02-06T12:08:03.883Z,7.67
2023-02-06T12:10:36.171Z,7.47
2023-02-06T12:13:10.758Z,7.87
2023-02-06T12:15:48.574Z,7.93
2023-02-06T12:18:21.795Z,8.57
2023-02-06T12:20:53.398Z,7.97
2023-02-06T12:23:47.702Z,7.73
2023-02-06T12:26:18.211Z,8.07
2023-02-06T12:28:51.920Z,7.87
2023-02-06T12:31:44.210Z,7.83
2023-02-06T12:34:19.459Z,9.67
2023-02-06T12:36:59.238Z,9.47
2023-02-06T12:39:32.129Z,9.07
2023-02-06T12:42:21.091Z,9.57
2023-02-06T12:44:59.470Z,10.70
2023-02-06T12:47:40.747Z,10.80
2023-02-06T12:50:23.514Z,10.17
2023-02-06T12:53:05.107Z,10.27
2023-02-06T12:55:37.180Z,9.83
2023-02-06T12:58:05.357Z,10.43
2023-02-06T13:01:01.204Z,10.20
2023-02-06T13:03:31.548Z,9.30
2023-02-06T13:06:22.066Z,9.87
2023-02-06T13:09:07.931Z,9.67
2023-02-06T13:11:39.374Z,9.97
2023-02-06T13:14:28.040Z,8.80
2023-02-06T13:17:04.979Z,9.27
2023-02-06T13:19:53.187Z,9.60
2023-02-06T13:22:20.355Z,10.00
2023-02-06T13:24:49.715Z,9.90
2023-02-06T13:27:25.186Z,11.00
2023-02-06T13:29:54.273Z,10.77
2023-02-06T13:32:24.628Z,10.83
2023-02-06T13:34:54.291Z,8.97
2023-02-06T13:37:37.938Z,10.77
2023-02-06T13:40:23.350Z,10.93
2023-02-06T13:42:57.299Z,10.83
2023-02-06T13:45:45.119Z,9.60
2023-02-06T13:48:47.358Z,9.73
2023-02-06T13:51:53.118Z,10.30
2023-02-06T13:54:28.831Z,9.27
2023-02-06T13:57:20.723Z,10.20
2023-02-06T14:00:11.080Z,10.10
2023-02-06T14:02:41.313Z,9.53
2023-02-06T14:05:17.185Z,10.33
2023-02-06T14:08:11.058Z,11.30
2023-02-06T14:10:47.593Z,9.77
2023-02-06T14:13:36.201Z,11.23
2023-02-06T14:16:28.539Z,11.40
2023-02-06T14:19:23.032Z,10.77
2023-02-06T14:22:09.728Z,10.40
2023-02-06T14:25:11.929Z,10.40
2023-02-06T14:28:01.522Z,10.30
2023-02-06T14:30:46.697Z,10.03
2023-02-06T14:33:51.738Z,10.73
2023-02-06T14:37:06.827Z,12.67
2023-02-06T14:39:54.944Z,10.20
2023-02-06T14:42:44.250Z,11.40
2023-02-06T14:45:38.603Z,11.93
2023-02-06T14:48:31.281Z,12.07
2023-02-06T14:50:59.688Z,11.03
2023-02-06T14:53:31.501Z,10.33
2023-02-06T14:56:12.663Z,11.53
2023-02-06T14:58:39.784Z,15.03
2023-02-06T15:01:18.631Z,14.73
2023-02-06T15:03:47.443Z,14.80
2023-02-06T15:06:35.310Z,15.50
2023-02-06T15:09:02.598Z,14.67
2023-02-06T15:11:32.985Z,13.57
2023-02-06T15:14:04.413Z,12.37
2023-02-06T15:16:34.233Z,10.27
2023-02-06T15:19:24.793Z,10.17
2023-02-06T15:21:59.578Z,11.57
2023-02-06T15:24:49.153Z,14.17
2023-02-06T15:27:36.956Z,9.73
2023-02-06T15:30:26.902Z,9.70
2023-02-06T15:32:56.653Z,9.53
2023-02-06T15:35:31.750Z,9.90
2023-02-06T15:38:04.583Z,7.90
2023-02-06T15:40:34.559Z,7.57
2023-02-06T15:43:03.227Z,8.40
2023-02-06T15:45:36.932Z,7.57
2023-02-06T15:48:35.122Z,7.27
2023-02-06T15:51:09.030Z,7.00
2023-02-06T15:53:39.388Z,7.90
2023-02-06T15:56:21.311Z,8.80
2023-02-06T15:58:54.226Z,9.80
2023-02-06T16:01:21.608Z,9.50
2023-02-06T16:03:56.571Z,10.37
2023-02-06T16:06:23.464Z,10.57
2023-02-06T16:08:55.380Z,12.63
2023-02-06T16:11:50.838Z,11.13
2023-02-06T16:14:41.715Z,10.77
2023-02-06T16:17:08.767Z,10.73
2023-02-06T16:20:06.965Z,11.20
2023-02-06T16:22:40.329Z,12.47
2023-02-06T16:25:22.678Z,12.50
2023-02-06T16:27:51.450Z,12.77
2023-02-06T16:30:33.920Z,12.43
2023-02-06T16:33:31.292Z,10.90
2023-02-06T16:35:58.197Z,16.53
2023-02-06T16:38:25.183Z,14.83
2023-02-06T16:40:52.662Z,19.83
2023-02-06T16:43:20.326Z,18.00
2023-02-06T16:45:48.156Z,19.60
2023-02-06T16:48:20.220Z,18.63
2023-02-06T16:50:48.764Z,20.10
2023-02-06T16:53:34.153Z,18.00
2023-02-06T16:56:02.336Z,20.23
2023-02-06T16:58:32.025Z,17.23
2023-02-06T17:00:59.347Z,15.80
2023-02-06T17:03:32.802Z,14.30
2023-02-06T17:06:01.246Z,13.03
2023-02-06T17:08:28.184Z,12.17
2023-02-06T17:10:55.007Z,13.40
2023-02-06T17:13:24.463Z,14.30
2023-02-06T17:15:56.326Z,12.67
2023-02-06T17:18:23.772Z,12.93
2023-02-06T17:20:53.193Z,12.40
2023-02-06T17:23:20.473Z,12.37
2023-02-06T17:25:47.508Z,12.90
2023-02-06T17:28:18.698Z,13.00
2023-02-06T17:30:46.480Z,13.30
2023-02-06T17:33:13.445Z,12.67
2023-02-06T17:35:40.225Z,12.00
2023-02-06T17:38:09.197Z,13.37
2023-02-06T17:40:37.844Z,13.83
2023-02-06T17:43:06.010Z,14.07
2023-02-06T17:45:35.437Z,14.83
2023-02-06T17:48:02.603Z,16.20
2023-02-06T17:50:33.261Z,13.70
2023-02-06T17:53:00.527Z,13.10
2023-02-06T17:55:28.858Z,13.37
2023-02-06T17:58:02.252Z,13.40
2023-02-06T18:00:29.406Z,12.53
2023-02-06T18:02:58.614Z,11.73
2023-02-06T18:05:26.457Z,12.47
2023-02-06T18:07:53.511Z,12.53
2023-02-06T18:10:22.763Z,12.73
2023-02-06T18:12:49.674Z,12.07
2023-02-06T18:15:17.355Z,13.20
2023-02-06T18:17:44.590Z,13.13
2023-02-06T18:20:12.662Z,14.27
2023-02-06T18:22:42.436Z,13.97
2023-02-06T18:25:13.242Z,14.40
2023-02-06T18:27:41.821Z,14.40
2023-02-06T18:30:11.085Z,12.97
2023-02-06T18:32:39.130Z,16.90
2023-02-06T18:35:07.668Z,15.13
2023-02-06T18:37:35.437Z,14.30
2023-02-06T18:40:02.862Z,13.80
2023-02-06T18:42:48.496Z,13.10
2023-02-06T18:45:15.471Z,13.40
2023-02-06T18:47:42.624Z,13.37
2023-02-06T18:50:11.590Z,13.43
2023-02-06T18:52:42.351Z,16.17
2023-02-06T18:55:09.769Z,15.53
2023-02-06T18:57:37.085Z,12.87
2023-02-06T19:00:12.226Z,12.17
2023-02-06T19:02:39.112Z,13.00
2023-02-06T19:05:06.475Z,13.27
2023-02-06T19:07:33.698Z,14.67
2023-02-06T19:10:04.394Z,18.33
2023-02-06T19:12:32.361Z,15.93
2023-02-06T19:15:00.203Z,14.63
2023-02-06T19:17:28.243Z,15.67
2023-02-06T19:19:55.146Z,14.30
2023-02-06T19:22:24.065Z,15.03
2023-02-06T19:24:54.124Z,14.07
2023-02-06T19:27:22.008Z,15.13
2023-02-06T19:29:49.279Z,14.97
2023-02-06T19:32:16.275Z,14.17
2023-02-06T19:34:45.533Z,15.40
2023-02-06T19:37:13.626Z,15.93
2023-02-06T19:39:41.470Z,14.97
2023-02-06T19:42:10.223Z,14.37
2023-02-06T19:44:37.528Z,16.47
2023-02-06T19:47:07.782Z,16.63
2023-02-06T19:49:34.842Z,15.70
2023-02-06T19:52:02.012Z,15.13
2023-02-06T19:54:28.959Z,15.80
2023-02-06T19:56:56.000Z,14.33
2023-02-06T19:59:28.613Z,15.27
2023-02-06T20:01:58.605Z,14.57
2023-02-06T20:04:29.262Z,15.50
2023-02-06T20:06:56.451Z,15.00
2023-02-06T20:09:24.468Z,16.03
2023-02-06T20:11:53.137Z,16.50
2023-02-06T20:14:20.999Z,16.63
2023-02-06T20:16:49.482Z,17.07
2023-02-06T20:19:25.000Z,17.23
2023-02-06T20:21:57.219Z,16.23
2023-02-06T20:24:27.688Z,17.00
2023-02-06T20:26:57.955Z,17.77
2023-02-06T20:29:31.341Z,16.70
2023-02-06T20:32:00.564Z,16.53
2023-02-06T20:34:41.331Z,17.27
2023-02-06T20:37:08.371Z,17.80
2023-02-06T20:39:35.377Z,17.67
2023-02-06T20:42:04.599Z,17.50
2023-02-06T20:44:31.639Z,18.20
2023-02-06T20:46:58.437Z,18.03
2023-02-06T20:49:28.632Z,18.47
2023-02-06T20:51:58.697Z,18.53
2023-02-06T20:54:25.987Z,16.83
2023-02-06T20:56:53.101Z,18.53
2023-02-06T20:59:20.500Z,16.50
2023-02-06T21:01:48.065Z,16.33
2023-02-06T21:04:16.589Z,17.23
2023-02-06T21:06:44.381Z,16.23
2023-02-06T21:09:14.884Z,16.50
2023-02-06T21:11:45.251Z,16.37
2023-02-06T21:14:13.176Z,15.53
2023-02-06T21:16:40.661Z,16.40
2023-02-06T21:19:09.677Z,17.20
2023-02-06T21:21:37.511Z,16.77
2023-02-06T21:24:04.902Z,16.83
2023-02-06T21:26:32.890Z,17.03
2023-02-06T21:29:00.720Z,18.03
2023-02-06T21:31:36.815Z,16.40
2023-02-06T21:34:20.249Z,17.87
2023-02-06T21:36:50.627Z,17.30
2023-02-06T21:39:23.245Z,17.80
2023-02-06T21:41:53.992Z,17.80
2023-02-06T21:44:23.815Z,17.33
2023-02-06T21:46:51.570Z,16.67
2023-02-06T21:49:19.542Z,15.70
2023-02-06T21:51:46.767Z,15.97
2023-02-06T21:54:13.602Z,16.80
2023-02-06T21:56:40.696Z,15.90
2023-02-06T21:59:08.480Z,19.50
2023-02-06T22:01:35.905Z,18.20
2023-02-06T22:04:04.219Z,17.30
2023-02-06T22:06:32.572Z,15.20
2023-02-06T22:09:07.746Z,14.37
2023-02-06T22:11:39.528Z,13.67
2023-02-06T22:14:10.506Z,15.07
2023-02-06T22:16:37.622Z,14.83
2023-02-06T22:19:05.836Z,13.57
2023-02-06T22:21:33.926Z,13.93
2023-02-06T22:24:05.580Z,14.97
2023-02-06T22:26:36.658Z,14.27
2023-02-06T22:29:04.350Z,14.53
2023-02-06T22:31:33.235Z,14.43
2023-02-06T22:34:00.951Z,14.10
2023-02-06T22:36:30.380Z,14.10
2023-02-06T22:39:03.000Z,14.10
2023-02-06T22:41:30.626Z,14.53
2023-02-06T22:43:57.739Z,14.97
2023-02-06T22:46:24.602Z,14.80
2023-02-06T22:48:51.860Z,15.33
2023-02-06T22:51:19.916Z,15.00
2023-02-06T22:53:47.200Z,16.63
2023-02-06T22:56:27.136Z,16.47
2023-02-06T22:59:00.197Z,15.87
2023-02-06T23:01:32.149Z,15.77
2023-02-06T23:04:00.474Z,15.67
2023-02-06T23:06:28.700Z,16.23
2023-02-06T23:08:57.186Z,16.43
2023-02-06T23:11:25.054Z,15.90
2023-02-06T23:13:57.418Z,16.10
2023-02-06T23:16:25.164Z,15.27
2023-02-06T23:18:52.173Z,16.07
2023-02-06T23:21:21.722Z,16.20
2023-02-06T23:23:49.041Z,14.97
2023-02-06T23:26:18.364Z,16.50
2023-02-06T23:28:45.542Z,14.70
2023-02-06T23:31:13.312Z,15.27
2023-02-06T23:33:40.956Z,15.30
2023-02-06T23:36:18.788Z,16.87
2023-02-06T23:38:47.342Z,17.10
2023-02-06T23:41:20.186Z,15.47
2023-02-06T23:43:52.156Z,15.83
2023-02-06T23:46:20.669Z,14.17
2023-02-06T23:48:48.892Z,13.53
2023-02-06T23:51:17.227Z,13.07
2023-02-06T23:53:44.371Z,11.60
2023-02-06T23:56:16.332Z,12.07
2023-02-06T23:58:43.888Z,11.43
